Terminal Aerodrome Forecast
Issued by NWS

Home | Current Version | Previous Version | Text Only | Print | Product List | Glossary On
Versions: 1 2 3 4 5 6 7 8 9 10 11 12 13 14 15 16 17
891
FTUS43 KICT 280520
TAFSLN
TAF
KSLN 280520Z 2806/2906 05006KT P6SM SCT100 SCT250
     FM281100 08006KT P6SM SCT250
     FM282200 12008KT P6SM VCTS SCT050CB SCT250
      TEMPO 2823/2903 5SM TSRA BKN035CB
     FM290300 07012KT P6SM SCT080 BKN120=

USA.gov is the U.S. government's official web portal to all federal, state and local government web resources and services.